sensor_id;sensor_type;location;lat;lon;timestamp;P1;durP1;ratioP1;P2;durP2;ratioP2
45620;SDS011;31345;51.522;10.702;2022-12-18T00:01:21;19.97;;;11.60;;
45620;SDS011;31345;51.522;10.702;2022-12-18T00:03:49;20.53;;;11.07;;
45620;SDS011;31345;51.522;10.702;2022-12-18T00:06:17;20.33;;;11.10;;
45620;SDS011;31345;51.522;10.702;2022-12-18T00:08:46;18.53;;;10.73;;
45620;SDS011;31345;51.522;10.702;2022-12-18T00:11:14;14.93;;;10.30;;
45620;SDS011;31345;51.522;10.702;2022-12-18T00:13:43;21.83;;;11.43;;
45620;SDS011;31345;51.522;10.702;2022-12-18T00:16:13;18.13;;;11.43;;
45620;SDS011;31345;51.522;10.702;2022-12-18T00:18:43;19.30;;;11.03;;
45620;SDS011;31345;51.522;10.702;2022-12-18T00:21:11;18.87;;;10.73;;
45620;SDS011;31345;51.522;10.702;2022-12-18T00:23:41;18.87;;;11.70;;
45620;SDS011;31345;51.522;10.702;2022-12-18T00:26:11;18.45;;;11.23;;
45620;SDS011;31345;51.522;10.702;2022-12-18T00:28:41;17.63;;;10.40;;
45620;SDS011;31345;51.522;10.702;2022-12-18T00:31:09;21.03;;;11.40;;
45620;SDS011;31345;51.522;10.702;2022-12-18T00:33:40;20.38;;;10.85;;
45620;SDS011;31345;51.522;10.702;2022-12-18T00:36:10;21.55;;;11.40;;
45620;SDS011;31345;51.522;10.702;2022-12-18T00:38:39;21.83;;;11.60;;
45620;SDS011;31345;51.522;10.702;2022-12-18T00:41:09;17.37;;;11.10;;
45620;SDS011;31345;51.522;10.702;2022-12-18T00:43:39;23.77;;;10.63;;
45620;SDS011;31345;51.522;10.702;2022-12-18T00:46:06;19.50;;;11.70;;
45620;SDS011;31345;51.522;10.702;2022-12-18T00:48:33;21.23;;;11.00;;
45620;SDS011;31345;51.522;10.702;2022-12-18T00:51:03;21.30;;;11.43;;
45620;SDS011;31345;51.522;10.702;2022-12-18T00:53:30;22.57;;;12.30;;
45620;SDS011;31345;51.522;10.702;2022-12-18T00:55:58;19.73;;;11.20;;
45620;SDS011;31345;51.522;10.702;2022-12-18T00:58:26;17.77;;;10.10;;
45620;SDS011;31345;51.522;10.702;2022-12-18T01:00:54;20.90;;;10.80;;
45620;SDS011;31345;51.522;10.702;2022-12-18T01:03:21;19.07;;;11.67;;
45620;SDS011;31345;51.522;10.702;2022-12-18T01:05:49;20.90;;;12.20;;
45620;SDS011;31345;51.522;10.702;2022-12-18T01:08:19;19.80;;;11.00;;
45620;SDS011;31345;51.522;10.702;2022-12-18T01:10:47;22.83;;;13.17;;
45620;SDS011;31345;51.522;10.702;2022-12-18T01:13:15;23.37;;;12.73;;
45620;SDS011;31345;51.522;10.702;2022-12-18T01:15:47;23.10;;;12.23;;
45620;SDS011;31345;51.522;10.702;2022-12-18T01:18:18;25.00;;;12.17;;
45620;SDS011;31345;51.522;10.702;2022-12-18T01:20:45;21.23;;;12.43;;
45620;SDS011;31345;51.522;10.702;2022-12-18T01:23:13;24.83;;;13.47;;
45620;SDS011;31345;51.522;10.702;2022-12-18T01:25:42;22.90;;;12.03;;
45620;SDS011;31345;51.522;10.702;2022-12-18T01:28:10;19.77;;;12.23;;
45620;SDS011;31345;51.522;10.702;2022-12-18T01:30:37;20.67;;;11.07;;
45620;SDS011;31345;51.522;10.702;2022-12-18T01:33:05;20.50;;;11.67;;
45620;SDS011;31345;51.522;10.702;2022-12-18T01:35:39;22.23;;;11.93;;
45620;SDS011;31345;51.522;10.702;2022-12-18T01:38:08;21.53;;;11.17;;
45620;SDS011;31345;51.522;10.702;2022-12-18T01:40:35;19.17;;;11.77;;
45620;SDS011;31345;51.522;10.702;2022-12-18T01:43:05;23.13;;;11.23;;
45620;SDS011;31345;51.522;10.702;2022-12-18T01:45:33;21.27;;;10.90;;
45620;SDS011;31345;51.522;10.702;2022-12-18T01:48:01;21.67;;;12.03;;
45620;SDS011;31345;51.522;10.702;2022-12-18T01:50:34;17.80;;;11.03;;
45620;SDS011;31345;51.522;10.702;2022-12-18T01:53:04;22.93;;;12.30;;
45620;SDS011;31345;51.522;10.702;2022-12-18T01:55:38;20.23;;;12.10;;
45620;SDS011;31345;51.522;10.702;2022-12-18T01:58:11;21.37;;;11.17;;
45620;SDS011;31345;51.522;10.702;2022-12-18T02:00:38;27.97;;;14.20;;
45620;SDS011;31345;51.522;10.702;2022-12-18T02:03:06;27.17;;;15.43;;
45620;SDS011;31345;51.522;10.702;2022-12-18T02:05:38;34.60;;;16.70;;
45620;SDS011;31345;51.522;10.702;2022-12-18T02:08:13;32.30;;;15.07;;
45620;SDS011;31345;51.522;10.702;2022-12-18T02:10:48;29.00;;;13.17;;
45620;SDS011;31345;51.522;10.702;2022-12-18T02:13:28;35.57;;;15.17;;
45620;SDS011;31345;51.522;10.702;2022-12-18T02:16:00;27.73;;;13.97;;
45620;SDS011;31345;51.522;10.702;2022-12-18T02:18:35;36.90;;;16.47;;
45620;SDS011;31345;51.522;10.702;2022-12-18T02:21:08;55.50;;;19.17;;
45620;SDS011;31345;51.522;10.702;2022-12-18T02:26:19;44.72;;;17.35;;
45620;SDS011;31345;51.522;10.702;2022-12-18T02:28:52;37.07;;;16.73;;
45620;SDS011;31345;51.522;10.702;2022-12-18T02:31:25;33.77;;;16.30;;
45620;SDS011;31345;51.522;10.702;2022-12-18T02:33:56;44.27;;;17.87;;
45620;SDS011;31345;51.522;10.702;2022-12-18T02:36:34;43.13;;;18.27;;
45620;SDS011;31345;51.522;10.702;2022-12-18T02:39:06;37.20;;;17.80;;
45620;SDS011;31345;51.522;10.702;2022-12-18T02:41:40;34.97;;;18.00;;
45620;SDS011;31345;51.522;10.702;2022-12-18T02:44:09;41.93;;;18.07;;
45620;SDS011;31345;51.522;10.702;2022-12-18T02:46:39;38.07;;;20.17;;
45620;SDS011;31345;51.522;10.702;2022-12-18T02:49:17;39.27;;;18.50;;
45620;SDS011;31345;51.522;10.702;2022-12-18T02:51:55;58.13;;;21.27;;
45620;SDS011;31345;51.522;10.702;2022-12-18T02:54:33;54.27;;;19.73;;
45620;SDS011;31345;51.522;10.702;2022-12-18T02:57:13;40.22;;;17.27;;
45620;SDS011;31345;51.522;10.702;2022-12-18T02:59:49;35.83;;;17.73;;
45620;SDS011;31345;51.522;10.702;2022-12-18T03:02:24;34.40;;;18.13;;
45620;SDS011;31345;51.522;10.702;2022-12-18T03:04:58;36.77;;;18.00;;
45620;SDS011;31345;51.522;10.702;2022-12-18T03:07:34;33.27;;;16.73;;
45620;SDS011;31345;51.522;10.702;2022-12-18T03:10:09;33.13;;;16.97;;
45620;SDS011;31345;51.522;10.702;2022-12-18T03:12:42;30.40;;;16.73;;
45620;SDS011;31345;51.522;10.702;2022-12-18T03:15:15;34.53;;;16.93;;
45620;SDS011;31345;51.522;10.702;2022-12-18T03:17:52;36.13;;;17.80;;
45620;SDS011;31345;51.522;10.702;2022-12-18T03:20:26;27.37;;;14.43;;
45620;SDS011;31345;51.522;10.702;2022-12-18T03:22:59;31.87;;;16.47;;
45620;SDS011;31345;51.522;10.702;2022-12-18T03:25:34;29.83;;;15.60;;
45620;SDS011;31345;51.522;10.702;2022-12-18T03:28:07;27.70;;;15.20;;
45620;SDS011;31345;51.522;10.702;2022-12-18T03:30:40;30.20;;;13.87;;
45620;SDS011;31345;51.522;10.702;2022-12-18T03:33:12;30.35;;;15.98;;
45620;SDS011;31345;51.522;10.702;2022-12-18T03:35:48;37.07;;;17.43;;
45620;SDS011;31345;51.522;10.702;2022-12-18T03:38:17;32.80;;;16.47;;
45620;SDS011;31345;51.522;10.702;2022-12-18T03:40:50;36.28;;;17.25;;
45620;SDS011;31345;51.522;10.702;2022-12-18T03:43:31;35.70;;;17.97;;
45620;SDS011;31345;51.522;10.702;2022-12-18T03:46:09;38.27;;;18.10;;
45620;SDS011;31345;51.522;10.702;2022-12-18T03:48:43;37.63;;;17.63;;
45620;SDS011;31345;51.522;10.702;2022-12-18T03:51:22;54.03;;;18.03;;
45620;SDS011;31345;51.522;10.702;2022-12-18T03:53:55;40.87;;;18.73;;
45620;SDS011;31345;51.522;10.702;2022-12-18T03:56:34;41.23;;;17.67;;
45620;SDS011;31345;51.522;10.702;2022-12-18T03:59:08;33.70;;;18.23;;
45620;SDS011;31345;51.522;10.702;2022-12-18T04:01:42;36.33;;;19.30;;
45620;SDS011;31345;51.522;10.702;2022-12-18T04:04:15;32.77;;;18.00;;
45620;SDS011;31345;51.522;10.702;2022-12-18T04:06:48;48.13;;;20.00;;
45620;SDS011;31345;51.522;10.702;2022-12-18T04:09:18;40.33;;;18.67;;
45620;SDS011;31345;51.522;10.702;2022-12-18T04:11:48;38.77;;;20.10;;
45620;SDS011;31345;51.522;10.702;2022-12-18T04:14:17;44.80;;;17.27;;
45620;SDS011;31345;51.522;10.702;2022-12-18T04:16:50;39.60;;;18.60;;
45620;SDS011;31345;51.522;10.702;2022-12-18T04:19:22;49.60;;;18.23;;
45620;SDS011;31345;51.522;10.702;2022-12-18T04:21:52;30.63;;;17.75;;
45620;SDS011;31345;51.522;10.702;2022-12-18T04:24:20;37.80;;;17.73;;
45620;SDS011;31345;51.522;10.702;2022-12-18T04:27:02;34.13;;;18.17;;
45620;SDS011;31345;51.522;10.702;2022-12-18T04:29:35;37.77;;;17.47;;
45620;SDS011;31345;51.522;10.702;2022-12-18T04:32:03;35.60;;;18.07;;
45620;SDS011;31345;51.522;10.702;2022-12-18T04:34:32;38.00;;;15.57;;
45620;SDS011;31345;51.522;10.702;2022-12-18T04:37:00;46.70;;;17.83;;
45620;SDS011;31345;51.522;10.702;2022-12-18T04:39:29;29.20;;;15.30;;
45620;SDS011;31345;51.522;10.702;2022-12-18T04:42:00;29.43;;;15.90;;
45620;SDS011;31345;51.522;10.702;2022-12-18T04:44:28;35.10;;;17.63;;
45620;SDS011;31345;51.522;10.702;2022-12-18T04:46:57;38.30;;;17.27;;
45620;SDS011;31345;51.522;10.702;2022-12-18T04:49:25;32.87;;;16.60;;
45620;SDS011;31345;51.522;10.702;2022-12-18T04:51:53;30.90;;;16.70;;
45620;SDS011;31345;51.522;10.702;2022-12-18T04:54:21;33.33;;;17.03;;
45620;SDS011;31345;51.522;10.702;2022-12-18T04:56:49;25.57;;;15.53;;
45620;SDS011;31345;51.522;10.702;2022-12-18T04:59:16;35.13;;;16.47;;
45620;SDS011;31345;51.522;10.702;2022-12-18T05:01:44;30.00;;;16.67;;
45620;SDS011;31345;51.522;10.702;2022-12-18T05:04:13;44.70;;;17.70;;
45620;SDS011;31345;51.522;10.702;2022-12-18T05:06:41;51.07;;;19.80;;
45620;SDS011;31345;51.522;10.702;2022-12-18T05:09:09;40.13;;;16.67;;
45620;SDS011;31345;51.522;10.702;2022-12-18T05:11:36;46.83;;;18.30;;
45620;SDS011;31345;51.522;10.702;2022-12-18T05:14:04;34.10;;;17.57;;
45620;SDS011;31345;51.522;10.702;2022-12-18T05:16:32;34.87;;;17.37;;
45620;SDS011;31345;51.522;10.702;2022-12-18T05:19:00;34.43;;;18.77;;
45620;SDS011;31345;51.522;10.702;2022-12-18T05:21:29;40.93;;;17.47;;
45620;SDS011;31345;51.522;10.702;2022-12-18T05:23:57;35.93;;;18.67;;
45620;SDS011;31345;51.522;10.702;2022-12-18T05:26:25;33.83;;;17.37;;
45620;SDS011;31345;51.522;10.702;2022-12-18T05:28:53;31.47;;;17.93;;
45620;SDS011;31345;51.522;10.702;2022-12-18T05:31:23;26.23;;;16.27;;
45620;SDS011;31345;51.522;10.702;2022-12-18T05:33:50;30.60;;;17.63;;
45620;SDS011;31345;51.522;10.702;2022-12-18T05:36:18;25.03;;;15.27;;
45620;SDS011;31345;51.522;10.702;2022-12-18T05:38:47;28.37;;;16.13;;
45620;SDS011;31345;51.522;10.702;2022-12-18T05:41:14;27.97;;;15.83;;
45620;SDS011;31345;51.522;10.702;2022-12-18T05:43:42;29.30;;;16.37;;
45620;SDS011;31345;51.522;10.702;2022-12-18T05:46:12;33.77;;;16.93;;
45620;SDS011;31345;51.522;10.702;2022-12-18T05:48:41;30.13;;;16.10;;
45620;SDS011;31345;51.522;10.702;2022-12-18T05:51:10;28.83;;;15.77;;
45620;SDS011;31345;51.522;10.702;2022-12-18T05:53:39;30.33;;;15.77;;
45620;SDS011;31345;51.522;10.702;2022-12-18T05:56:10;28.07;;;15.33;;
45620;SDS011;31345;51.522;10.702;2022-12-18T05:58:39;27.77;;;16.57;;
45620;SDS011;31345;51.522;10.702;2022-12-18T06:01:08;26.50;;;14.30;;
45620;SDS011;31345;51.522;10.702;2022-12-18T06:03:36;29.90;;;15.98;;
45620;SDS011;31345;51.522;10.702;2022-12-18T06:06:11;30.73;;;16.03;;
45620;SDS011;31345;51.522;10.702;2022-12-18T06:08:40;27.03;;;16.10;;
45620;SDS011;31345;51.522;10.702;2022-12-18T06:11:09;27.90;;;14.97;;
45620;SDS011;31345;51.522;10.702;2022-12-18T06:13:37;27.67;;;15.97;;
45620;SDS011;31345;51.522;10.702;2022-12-18T06:16:05;35.00;;;17.03;;
45620;SDS011;31345;51.522;10.702;2022-12-18T06:18:34;26.90;;;15.90;;
45620;SDS011;31345;51.522;10.702;2022-12-18T06:21:01;27.07;;;15.03;;
45620;SDS011;31345;51.522;10.702;2022-12-18T06:23:29;26.33;;;14.53;;
45620;SDS011;31345;51.522;10.702;2022-12-18T06:25:57;24.87;;;14.07;;
45620;SDS011;31345;51.522;10.702;2022-12-18T06:28:26;23.63;;;14.07;;
45620;SDS011;31345;51.522;10.702;2022-12-18T06:30:54;27.67;;;15.67;;
45620;SDS011;31345;51.522;10.702;2022-12-18T06:33:21;26.53;;;15.50;;
45620;SDS011;31345;51.522;10.702;2022-12-18T06:35:53;26.80;;;15.20;;
45620;SDS011;31345;51.522;10.702;2022-12-18T06:38:20;26.90;;;15.07;;
45620;SDS011;31345;51.522;10.702;2022-12-18T06:40:48;26.57;;;15.13;;
45620;SDS011;31345;51.522;10.702;2022-12-18T06:43:22;30.60;;;15.03;;
45620;SDS011;31345;51.522;10.702;2022-12-18T06:45:51;29.53;;;16.13;;
45620;SDS011;31345;51.522;10.702;2022-12-18T06:48:26;24.50;;;15.20;;
45620;SDS011;31345;51.522;10.702;2022-12-18T06:50:54;28.60;;;15.50;;
45620;SDS011;31345;51.522;10.702;2022-12-18T06:53:22;26.03;;;16.13;;
45620;SDS011;31345;51.522;10.702;2022-12-18T06:55:50;30.53;;;16.93;;
45620;SDS011;31345;51.522;10.702;2022-12-18T06:58:17;29.27;;;15.77;;
45620;SDS011;31345;51.522;10.702;2022-12-18T07:00:45;28.37;;;17.00;;
45620;SDS011;31345;51.522;10.702;2022-12-18T07:03:14;25.43;;;15.90;;
45620;SDS011;31345;51.522;10.702;2022-12-18T07:05:42;26.00;;;16.20;;
45620;SDS011;31345;51.522;10.702;2022-12-18T07:08:09;28.60;;;16.67;;
45620;SDS011;31345;51.522;10.702;2022-12-18T07:10:40;33.40;;;16.63;;
45620;SDS011;31345;51.522;10.702;2022-12-18T07:13:09;31.80;;;16.53;;
45620;SDS011;31345;51.522;10.702;2022-12-18T07:15:37;26.07;;;14.20;;
45620;SDS011;31345;51.522;10.702;2022-12-18T07:18:05;27.53;;;16.13;;
45620;SDS011;31345;51.522;10.702;2022-12-18T07:20:34;27.00;;;15.00;;
45620;SDS011;31345;51.522;10.702;2022-12-18T07:23:02;27.30;;;14.43;;
45620;SDS011;31345;51.522;10.702;2022-12-18T07:25:33;25.53;;;14.23;;
45620;SDS011;31345;51.522;10.702;2022-12-18T07:28:01;37.78;;;18.95;;
45620;SDS011;31345;51.522;10.702;2022-12-18T07:30:29;31.10;;;16.70;;
45620;SDS011;31345;51.522;10.702;2022-12-18T07:32:56;27.00;;;15.17;;
45620;SDS011;31345;51.522;10.702;2022-12-18T07:35:24;24.80;;;14.00;;
45620;SDS011;31345;51.522;10.702;2022-12-18T07:37:53;24.00;;;12.47;;
45620;SDS011;31345;51.522;10.702;2022-12-18T07:40:21;24.53;;;12.97;;
45620;SDS011;31345;51.522;10.702;2022-12-18T07:42:49;20.47;;;12.10;;
45620;SDS011;31345;51.522;10.702;2022-12-18T07:45:17;24.73;;;13.97;;
45620;SDS011;31345;51.522;10.702;2022-12-18T07:47:44;23.50;;;12.63;;
45620;SDS011;31345;51.522;10.702;2022-12-18T07:50:12;25.43;;;14.90;;
45620;SDS011;31345;51.522;10.702;2022-12-18T07:52:40;35.13;;;17.50;;
45620;SDS011;31345;51.522;10.702;2022-12-18T07:55:09;38.57;;;17.90;;
45620;SDS011;31345;51.522;10.702;2022-12-18T07:57:37;34.13;;;17.77;;
45620;SDS011;31345;51.522;10.702;2022-12-18T08:00:05;33.83;;;18.30;;
45620;SDS011;31345;51.522;10.702;2022-12-18T08:02:38;37.30;;;17.57;;
45620;SDS011;31345;51.522;10.702;2022-12-18T08:05:06;41.83;;;19.93;;
45620;SDS011;31345;51.522;10.702;2022-12-18T08:07:34;64.97;;;21.60;;
45620;SDS011;31345;51.522;10.702;2022-12-18T08:10:02;46.23;;;20.67;;
45620;SDS011;31345;51.522;10.702;2022-12-18T08:12:31;38.73;;;19.77;;
45620;SDS011;31345;51.522;10.702;2022-12-18T08:14:59;36.57;;;20.13;;
45620;SDS011;31345;51.522;10.702;2022-12-18T08:17:26;43.20;;;20.57;;
45620;SDS011;31345;51.522;10.702;2022-12-18T08:19:54;41.83;;;21.20;;
45620;SDS011;31345;51.522;10.702;2022-12-18T08:22:22;43.30;;;21.10;;
45620;SDS011;31345;51.522;10.702;2022-12-18T08:24:49;41.93;;;21.97;;
45620;SDS011;31345;51.522;10.702;2022-12-18T08:27:17;36.00;;;20.97;;
45620;SDS011;31345;51.522;10.702;2022-12-18T08:29:46;31.70;;;18.50;;
45620;SDS011;31345;51.522;10.702;2022-12-18T08:32:14;34.93;;;18.63;;
45620;SDS011;31345;51.522;10.702;2022-12-18T08:34:41;33.30;;;19.23;;
45620;SDS011;31345;51.522;10.702;2022-12-18T08:37:09;37.43;;;20.53;;
45620;SDS011;31345;51.522;10.702;2022-12-18T08:39:36;36.20;;;19.20;;
45620;SDS011;31345;51.522;10.702;2022-12-18T08:42:04;40.13;;;20.70;;
45620;SDS011;31345;51.522;10.702;2022-12-18T08:44:50;37.57;;;20.00;;
45620;SDS011;31345;51.522;10.702;2022-12-18T08:47:18;35.57;;;20.63;;
45620;SDS011;31345;51.522;10.702;2022-12-18T08:49:46;40.87;;;21.00;;
45620;SDS011;31345;51.522;10.702;2022-12-18T08:52:13;61.57;;;23.23;;
45620;SDS011;31345;51.522;10.702;2022-12-18T08:54:41;87.37;;;25.70;;
45620;SDS011;31345;51.522;10.702;2022-12-18T08:57:09;60.03;;;23.63;;
45620;SDS011;31345;51.522;10.702;2022-12-18T08:59:36;50.53;;;23.23;;
45620;SDS011;31345;51.522;10.702;2022-12-18T09:02:05;53.60;;;23.00;;
45620;SDS011;31345;51.522;10.702;2022-12-18T09:04:33;59.90;;;21.33;;
45620;SDS011;31345;51.522;10.702;2022-12-18T09:07:01;56.10;;;22.70;;
45620;SDS011;31345;51.522;10.702;2022-12-18T09:09:28;47.63;;;23.03;;
45620;SDS011;31345;51.522;10.702;2022-12-18T09:11:56;68.27;;;23.90;;
45620;SDS011;31345;51.522;10.702;2022-12-18T09:14:23;57.20;;;24.40;;
45620;SDS011;31345;51.522;10.702;2022-12-18T09:16:51;51.33;;;21.97;;
45620;SDS011;31345;51.522;10.702;2022-12-18T09:19:20;49.40;;;23.37;;
45620;SDS011;31345;51.522;10.702;2022-12-18T09:21:48;49.67;;;25.00;;
45620;SDS011;31345;51.522;10.702;2022-12-18T09:24:15;47.53;;;23.80;;
45620;SDS011;31345;51.522;10.702;2022-12-18T09:26:44;53.07;;;25.60;;
45620;SDS011;31345;51.522;10.702;2022-12-18T09:29:11;52.77;;;25.87;;
45620;SDS011;31345;51.522;10.702;2022-12-18T09:31:39;57.30;;;26.10;;
45620;SDS011;31345;51.522;10.702;2022-12-18T09:34:07;60.23;;;25.47;;
45620;SDS011;31345;51.522;10.702;2022-12-18T09:36:36;61.67;;;26.00;;
45620;SDS011;31345;51.522;10.702;2022-12-18T09:39:04;69.93;;;29.73;;
45620;SDS011;31345;51.522;10.702;2022-12-18T09:41:39;61.47;;;26.90;;
45620;SDS011;31345;51.522;10.702;2022-12-18T09:44:12;62.20;;;29.27;;
45620;SDS011;31345;51.522;10.702;2022-12-18T09:46:46;63.03;;;29.80;;
45620;SDS011;31345;51.522;10.702;2022-12-18T09:49:18;67.27;;;30.57;;
45620;SDS011;31345;51.522;10.702;2022-12-18T09:51:52;58.33;;;28.77;;
45620;SDS011;31345;51.522;10.702;2022-12-18T09:54:24;72.27;;;34.07;;
45620;SDS011;31345;51.522;10.702;2022-12-18T09:56:56;101.00;;;39.67;;
45620;SDS011;31345;51.522;10.702;2022-12-18T09:59:25;76.40;;;40.10;;
45620;SDS011;31345;51.522;10.702;2022-12-18T10:01:58;72.43;;;33.80;;
45620;SDS011;31345;51.522;10.702;2022-12-18T10:04:25;65.87;;;34.00;;
45620;SDS011;31345;51.522;10.702;2022-12-18T10:07:00;155.47;;;56.47;;
45620;SDS011;31345;51.522;10.702;2022-12-18T10:09:36;165.30;;;58.97;;
45620;SDS011;31345;51.522;10.702;2022-12-18T10:12:08;95.13;;;35.23;;
45620;SDS011;31345;51.522;10.702;2022-12-18T10:14:46;81.43;;;31.50;;
45620;SDS011;31345;51.522;10.702;2022-12-18T10:17:22;94.37;;;33.00;;
45620;SDS011;31345;51.522;10.702;2022-12-18T10:19:57;62.23;;;28.67;;
45620;SDS011;31345;51.522;10.702;2022-12-18T10:22:34;63.67;;;30.03;;
45620;SDS011;31345;51.522;10.702;2022-12-18T10:25:17;84.70;;;34.07;;
45620;SDS011;31345;51.522;10.702;2022-12-18T10:27:51;67.90;;;29.20;;
45620;SDS011;31345;51.522;10.702;2022-12-18T10:30:22;86.93;;;31.97;;
45620;SDS011;31345;51.522;10.702;2022-12-18T10:32:52;70.97;;;29.13;;
45620;SDS011;31345;51.522;10.702;2022-12-18T10:35:21;77.47;;;37.63;;
45620;SDS011;31345;51.522;10.702;2022-12-18T10:38:02;66.90;;;34.47;;
45620;SDS011;31345;51.522;10.702;2022-12-18T10:40:32;69.23;;;35.57;;
45620;SDS011;31345;51.522;10.702;2022-12-18T10:43:14;93.60;;;39.43;;
45620;SDS011;31345;51.522;10.702;2022-12-18T10:45:58;142.30;;;61.00;;
45620;SDS011;31345;51.522;10.702;2022-12-18T10:48:47;84.07;;;34.20;;
45620;SDS011;31345;51.522;10.702;2022-12-18T10:51:19;102.27;;;32.77;;
45620;SDS011;31345;51.522;10.702;2022-12-18T10:53:54;73.65;;;31.70;;
45620;SDS011;31345;51.522;10.702;2022-12-18T10:56:24;71.83;;;31.00;;
45620;SDS011;31345;51.522;10.702;2022-12-18T10:58:55;55.40;;;29.33;;
45620;SDS011;31345;51.522;10.702;2022-12-18T11:01:25;59.20;;;30.38;;
45620;SDS011;31345;51.522;10.702;2022-12-18T11:04:01;76.17;;;41.03;;
45620;SDS011;31345;51.522;10.702;2022-12-18T11:06:35;57.20;;;32.63;;
45620;SDS011;31345;51.522;10.702;2022-12-18T11:09:22;52.63;;;29.07;;
45620;SDS011;31345;51.522;10.702;2022-12-18T11:11:52;57.00;;;28.07;;
45620;SDS011;31345;51.522;10.702;2022-12-18T11:14:22;61.67;;;29.53;;
45620;SDS011;31345;51.522;10.702;2022-12-18T11:16:52;62.22;;;30.58;;
45620;SDS011;31345;51.522;10.702;2022-12-18T11:19:21;50.20;;;26.93;;
45620;SDS011;31345;51.522;10.702;2022-12-18T11:21:55;49.27;;;27.33;;
45620;SDS011;31345;51.522;10.702;2022-12-18T11:24:26;53.77;;;29.40;;
45620;SDS011;31345;51.522;10.702;2022-12-18T11:26:57;53.50;;;30.23;;
45620;SDS011;31345;51.522;10.702;2022-12-18T11:29:30;59.08;;;32.13;;
45620;SDS011;31345;51.522;10.702;2022-12-18T11:35:00;50.63;;;28.30;;
45620;SDS011;31345;51.522;10.702;2022-12-18T11:37:31;56.47;;;30.60;;
45620;SDS011;31345;51.522;10.702;2022-12-18T11:40:03;54.73;;;29.83;;
45620;SDS011;31345;51.522;10.702;2022-12-18T11:42:38;55.67;;;31.60;;
45620;SDS011;31345;51.522;10.702;2022-12-18T11:45:24;51.83;;;31.37;;
45620;SDS011;31345;51.522;10.702;2022-12-18T11:47:57;54.90;;;27.93;;
45620;SDS011;31345;51.522;10.702;2022-12-18T11:50:29;49.17;;;27.83;;
45620;SDS011;31345;51.522;10.702;2022-12-18T11:53:08;46.77;;;27.00;;
45620;SDS011;31345;51.522;10.702;2022-12-18T11:55:40;53.93;;;29.30;;
45620;SDS011;31345;51.522;10.702;2022-12-18T11:58:16;52.13;;;30.20;;
45620;SDS011;31345;51.522;10.702;2022-12-18T12:00:56;50.60;;;28.87;;
45620;SDS011;31345;51.522;10.702;2022-12-18T12:03:46;56.93;;;30.10;;
45620;SDS011;31345;51.522;10.702;2022-12-18T12:06:32;48.78;;;28.65;;
45620;SDS011;31345;51.522;10.702;2022-12-18T12:09:08;51.47;;;27.67;;
45620;SDS011;31345;51.522;10.702;2022-12-18T12:11:48;51.60;;;29.90;;
45620;SDS011;31345;51.522;10.702;2022-12-18T12:14:26;52.70;;;29.60;;
45620;SDS011;31345;51.522;10.702;2022-12-18T12:17:06;50.53;;;29.00;;
45620;SDS011;31345;51.522;10.702;2022-12-18T12:19:43;57.80;;;30.97;;
45620;SDS011;31345;51.522;10.702;2022-12-18T12:22:20;46.57;;;30.13;;
45620;SDS011;31345;51.522;10.702;2022-12-18T12:24:57;48.83;;;28.63;;
45620;SDS011;31345;51.522;10.702;2022-12-18T12:27:42;47.80;;;28.67;;
45620;SDS011;31345;51.522;10.702;2022-12-18T12:30:18;45.80;;;28.33;;
45620;SDS011;31345;51.522;10.702;2022-12-18T12:33:01;49.40;;;29.73;;
45620;SDS011;31345;51.522;10.702;2022-12-18T12:35:44;44.27;;;27.27;;
45620;SDS011;31345;51.522;10.702;2022-12-18T12:38:19;50.33;;;28.17;;
45620;SDS011;31345;51.522;10.702;2022-12-18T12:40:52;46.90;;;28.53;;
45620;SDS011;31345;51.522;10.702;2022-12-18T12:43:28;47.47;;;26.60;;
45620;SDS011;31345;51.522;10.702;2022-12-18T12:46:03;45.23;;;26.60;;
45620;SDS011;31345;51.522;10.702;2022-12-18T12:48:43;47.95;;;28.33;;
45620;SDS011;31345;51.522;10.702;2022-12-18T12:51:16;59.70;;;35.93;;
45620;SDS011;31345;51.522;10.702;2022-12-18T12:53:45;53.00;;;31.97;;
45620;SDS011;31345;51.522;10.702;2022-12-18T12:56:14;50.43;;;29.37;;
45620;SDS011;31345;51.522;10.702;2022-12-18T12:58:48;50.08;;;28.85;;
45620;SDS011;31345;51.522;10.702;2022-12-18T13:01:25;50.30;;;28.83;;
45620;SDS011;31345;51.522;10.702;2022-12-18T13:04:02;54.10;;;30.27;;
45620;SDS011;31345;51.522;10.702;2022-12-18T13:06:41;57.57;;;31.93;;
45620;SDS011;31345;51.522;10.702;2022-12-18T13:09:13;50.80;;;31.60;;
45620;SDS011;31345;51.522;10.702;2022-12-18T13:11:41;53.90;;;29.87;;
45620;SDS011;31345;51.522;10.702;2022-12-18T13:14:31;55.30;;;29.87;;
45620;SDS011;31345;51.522;10.702;2022-12-18T13:22:40;53.97;;;29.73;;
45620;SDS011;31345;51.522;10.702;2022-12-18T13:28:07;51.30;;;29.30;;
45620;SDS011;31345;51.522;10.702;2022-12-18T13:30:42;50.47;;;28.77;;
45620;SDS011;31345;51.522;10.702;2022-12-18T13:36:26;83.93;;;49.67;;
45620;SDS011;31345;51.522;10.702;2022-12-18T13:41:50;62.00;;;36.30;;
45620;SDS011;31345;51.522;10.702;2022-12-18T13:44:24;61.37;;;34.83;;
45620;SDS011;31345;51.522;10.702;2022-12-18T13:46:58;49.73;;;28.10;;
45620;SDS011;31345;51.522;10.702;2022-12-18T13:49:28;50.80;;;29.33;;
45620;SDS011;31345;51.522;10.702;2022-12-18T13:52:14;45.27;;;28.63;;
45620;SDS011;31345;51.522;10.702;2022-12-18T13:54:45;40.80;;;26.20;;
45620;SDS011;31345;51.522;10.702;2022-12-18T13:57:25;35.93;;;20.87;;
45620;SDS011;31345;51.522;10.702;2022-12-18T13:59:55;32.70;;;19.87;;
45620;SDS011;31345;51.522;10.702;2022-12-18T14:02:25;35.50;;;21.03;;
45620;SDS011;31345;51.522;10.702;2022-12-18T14:04:54;33.25;;;21.05;;
45620;SDS011;31345;51.522;10.702;2022-12-18T14:07:23;98.97;;;53.20;;
45620;SDS011;31345;51.522;10.702;2022-12-18T14:09:53;93.45;;;46.60;;
45620;SDS011;31345;51.522;10.702;2022-12-18T14:12:24;80.07;;;43.85;;
45620;SDS011;31345;51.522;10.702;2022-12-18T14:15:16;72.27;;;38.33;;
45620;SDS011;31345;51.522;10.702;2022-12-18T14:17:53;44.97;;;24.73;;
45620;SDS011;31345;51.522;10.702;2022-12-18T14:20:24;39.30;;;21.53;;
45620;SDS011;31345;51.522;10.702;2022-12-18T14:22:53;40.73;;;22.80;;
45620;SDS011;31345;51.522;10.702;2022-12-18T14:25:22;33.93;;;21.30;;
45620;SDS011;31345;51.522;10.702;2022-12-18T14:27:53;35.10;;;20.20;;
45620;SDS011;31345;51.522;10.702;2022-12-18T14:30:38;35.47;;;19.53;;
45620;SDS011;31345;51.522;10.702;2022-12-18T14:33:10;31.43;;;19.13;;
45620;SDS011;31345;51.522;10.702;2022-12-18T14:35:40;28.93;;;17.93;;
45620;SDS011;31345;51.522;10.702;2022-12-18T14:38:14;29.93;;;18.43;;
45620;SDS011;31345;51.522;10.702;2022-12-18T14:40:47;31.37;;;17.77;;
45620;SDS011;31345;51.522;10.702;2022-12-18T14:43:20;30.23;;;17.73;;
45620;SDS011;31345;51.522;10.702;2022-12-18T14:45:49;30.90;;;17.03;;
45620;SDS011;31345;51.522;10.702;2022-12-18T14:48:21;33.67;;;20.57;;
45620;SDS011;31345;51.522;10.702;2022-12-18T14:50:57;36.60;;;21.63;;
45620;SDS011;31345;51.522;10.702;2022-12-18T14:53:30;38.03;;;22.63;;